sensor_id;sensor_type;location;lat;lon;timestamp;P1;durP1;ratioP1;P2;durP2;ratioP2
14191;SDS011;7177;48.572;7.838;2022-09-09T00:01:00;4.27;;;1.93;;
14191;SDS011;7177;48.572;7.838;2022-09-09T00:03:55;3.00;;;1.70;;
14191;SDS011;7177;48.572;7.838;2022-09-09T00:06:31;4.93;;;1.50;;
14191;SDS011;7177;48.572;7.838;2022-09-09T00:09:11;9.97;;;2.20;;
14191;SDS011;7177;48.572;7.838;2022-09-09T00:14:08;4.43;;;1.80;;
14191;SDS011;7177;48.572;7.838;2022-09-09T00:16:44;6.20;;;2.00;;
14191;SDS011;7177;48.572;7.838;2022-09-09T00:19:18;6.83;;;1.70;;
14191;SDS011;7177;48.572;7.838;2022-09-09T00:21:52;4.40;;;1.73;;
14191;SDS011;7177;48.572;7.838;2022-09-09T00:24:38;4.70;;;1.43;;
14191;SDS011;7177;48.572;7.838;2022-09-09T00:30:18;6.23;;;1.70;;
14191;SDS011;7177;48.572;7.838;2022-09-09T00:32:47;4.37;;;2.23;;
14191;SDS011;7177;48.572;7.838;2022-09-09T00:37:49;5.00;;;1.50;;
14191;SDS011;7177;48.572;7.838;2022-09-09T00:45:57;7.17;;;1.90;;
14191;SDS011;7177;48.572;7.838;2022-09-09T00:54:32;4.63;;;1.50;;
14191;SDS011;7177;48.572;7.838;2022-09-09T00:59:59;3.93;;;1.50;;
14191;SDS011;7177;48.572;7.838;2022-09-09T01:08:35;3.07;;;1.40;;
14191;SDS011;7177;48.572;7.838;2022-09-09T01:11:09;2.67;;;1.30;;
14191;SDS011;7177;48.572;7.838;2022-09-09T01:13:46;2.87;;;1.57;;
14191;SDS011;7177;48.572;7.838;2022-09-09T01:16:18;6.27;;;1.83;;
14191;SDS011;7177;48.572;7.838;2022-09-09T01:18:45;5.10;;;1.93;;
14191;SDS011;7177;48.572;7.838;2022-09-09T01:21:30;4.37;;;1.60;;
14191;SDS011;7177;48.572;7.838;2022-09-09T01:24:15;6.87;;;1.80;;
14191;SDS011;7177;48.572;7.838;2022-09-09T01:27:03;9.40;;;2.23;;
14191;SDS011;7177;48.572;7.838;2022-09-09T01:29:30;3.03;;;1.57;;
14191;SDS011;7177;48.572;7.838;2022-09-09T01:31:58;4.37;;;1.80;;
14191;SDS011;7177;48.572;7.838;2022-09-09T01:34:27;4.87;;;1.73;;
14191;SDS011;7177;48.572;7.838;2022-09-09T01:37:02;2.80;;;1.57;;
14191;SDS011;7177;48.572;7.838;2022-09-09T01:39:36;2.73;;;1.60;;
14191;SDS011;7177;48.572;7.838;2022-09-09T01:42:04;5.60;;;1.50;;
14191;SDS011;7177;48.572;7.838;2022-09-09T01:44:33;2.27;;;1.33;;
14191;SDS011;7177;48.572;7.838;2022-09-09T01:47:00;1.67;;;1.30;;
14191;SDS011;7177;48.572;7.838;2022-09-09T01:49:26;3.17;;;1.37;;
14191;SDS011;7177;48.572;7.838;2022-09-09T01:51:53;1.40;;;1.10;;
14191;SDS011;7177;48.572;7.838;2022-09-09T01:54:20;2.70;;;1.50;;
14191;SDS011;7177;48.572;7.838;2022-09-09T01:59:48;2.97;;;1.40;;
14191;SDS011;7177;48.572;7.838;2022-09-09T02:02:36;2.70;;;1.30;;
14191;SDS011;7177;48.572;7.838;2022-09-09T02:07:47;3.13;;;1.37;;
14191;SDS011;7177;48.572;7.838;2022-09-09T02:10:20;3.23;;;1.27;;
14191;SDS011;7177;48.572;7.838;2022-09-09T02:12:47;2.43;;;1.40;;
14191;SDS011;7177;48.572;7.838;2022-09-09T02:15:21;1.70;;;1.00;;
14191;SDS011;7177;48.572;7.838;2022-09-09T02:17:53;1.50;;;1.10;;
14191;SDS011;7177;48.572;7.838;2022-09-09T02:20:22;1.67;;;1.20;;
14191;SDS011;7177;48.572;7.838;2022-09-09T02:22:49;3.43;;;1.33;;
14191;SDS011;7177;48.572;7.838;2022-09-09T02:25:17;3.80;;;1.37;;
14191;SDS011;7177;48.572;7.838;2022-09-09T02:27:45;6.53;;;1.97;;
14191;SDS011;7177;48.572;7.838;2022-09-09T02:30:13;2.83;;;1.20;;
14191;SDS011;7177;48.572;7.838;2022-09-09T02:32:39;2.43;;;1.10;;
14191;SDS011;7177;48.572;7.838;2022-09-09T02:35:09;1.73;;;1.17;;
14191;SDS011;7177;48.572;7.838;2022-09-09T02:37:41;1.47;;;0.97;;
14191;SDS011;7177;48.572;7.838;2022-09-09T02:40:11;1.83;;;1.00;;
14191;SDS011;7177;48.572;7.838;2022-09-09T02:42:40;3.43;;;1.40;;
14191;SDS011;7177;48.572;7.838;2022-09-09T02:45:07;2.67;;;1.30;;
14191;SDS011;7177;48.572;7.838;2022-09-09T02:47:35;2.30;;;1.17;;
14191;SDS011;7177;48.572;7.838;2022-09-09T02:50:11;2.40;;;1.40;;
14191;SDS011;7177;48.572;7.838;2022-09-09T02:52:41;2.43;;;1.17;;
14191;SDS011;7177;48.572;7.838;2022-09-09T02:55:34;4.23;;;1.40;;
14191;SDS011;7177;48.572;7.838;2022-09-09T02:58:05;2.20;;;1.20;;
14191;SDS011;7177;48.572;7.838;2022-09-09T03:00:33;2.87;;;1.20;;
14191;SDS011;7177;48.572;7.838;2022-09-09T03:03:01;3.70;;;1.33;;
14191;SDS011;7177;48.572;7.838;2022-09-09T03:05:30;2.73;;;1.07;;
14191;SDS011;7177;48.572;7.838;2022-09-09T03:07:56;4.00;;;1.20;;
14191;SDS011;7177;48.572;7.838;2022-09-09T03:10:22;2.90;;;1.30;;
14191;SDS011;7177;48.572;7.838;2022-09-09T03:12:48;1.63;;;1.00;;
14191;SDS011;7177;48.572;7.838;2022-09-09T03:15:13;4.00;;;1.50;;
14191;SDS011;7177;48.572;7.838;2022-09-09T03:17:39;2.90;;;1.37;;
14191;SDS011;7177;48.572;7.838;2022-09-09T03:20:06;5.00;;;1.40;;
14191;SDS011;7177;48.572;7.838;2022-09-09T03:22:33;4.00;;;1.43;;
14191;SDS011;7177;48.572;7.838;2022-09-09T03:24:59;1.73;;;1.10;;
14191;SDS011;7177;48.572;7.838;2022-09-09T03:27:24;4.13;;;1.40;;
14191;SDS011;7177;48.572;7.838;2022-09-09T03:29:50;4.00;;;1.50;;
14191;SDS011;7177;48.572;7.838;2022-09-09T03:32:16;1.90;;;1.30;;
14191;SDS011;7177;48.572;7.838;2022-09-09T03:34:42;5.27;;;1.60;;
14191;SDS011;7177;48.572;7.838;2022-09-09T03:37:08;3.80;;;1.43;;
14191;SDS011;7177;48.572;7.838;2022-09-09T03:39:34;3.27;;;1.50;;
14191;SDS011;7177;48.572;7.838;2022-09-09T03:41:59;3.83;;;1.27;;
14191;SDS011;7177;48.572;7.838;2022-09-09T03:44:28;4.27;;;1.30;;
14191;SDS011;7177;48.572;7.838;2022-09-09T03:46:54;2.07;;;1.30;;
14191;SDS011;7177;48.572;7.838;2022-09-09T03:49:20;3.33;;;1.23;;
14191;SDS011;7177;48.572;7.838;2022-09-09T03:51:46;4.30;;;1.33;;
14191;SDS011;7177;48.572;7.838;2022-09-09T03:54:12;4.13;;;1.37;;
14191;SDS011;7177;48.572;7.838;2022-09-09T03:56:37;4.70;;;1.73;;
14191;SDS011;7177;48.572;7.838;2022-09-09T03:59:04;3.43;;;1.50;;
14191;SDS011;7177;48.572;7.838;2022-09-09T04:01:30;2.80;;;1.30;;
14191;SDS011;7177;48.572;7.838;2022-09-09T04:03:55;2.07;;;1.10;;
14191;SDS011;7177;48.572;7.838;2022-09-09T04:06:23;1.93;;;1.40;;
14191;SDS011;7177;48.572;7.838;2022-09-09T04:08:48;2.63;;;1.30;;
14191;SDS011;7177;48.572;7.838;2022-09-09T04:11:14;1.37;;;1.20;;
14191;SDS011;7177;48.572;7.838;2022-09-09T04:13:41;1.50;;;1.20;;
14191;SDS011;7177;48.572;7.838;2022-09-09T04:16:07;2.13;;;1.30;;
14191;SDS011;7177;48.572;7.838;2022-09-09T04:18:35;1.60;;;1.20;;
14191;SDS011;7177;48.572;7.838;2022-09-09T04:21:01;5.90;;;1.63;;
14191;SDS011;7177;48.572;7.838;2022-09-09T04:23:28;2.53;;;1.50;;
14191;SDS011;7177;48.572;7.838;2022-09-09T04:25:54;3.30;;;1.20;;
14191;SDS011;7177;48.572;7.838;2022-09-09T04:28:22;2.10;;;1.40;;
14191;SDS011;7177;48.572;7.838;2022-09-09T04:30:50;3.53;;;1.47;;
14191;SDS011;7177;48.572;7.838;2022-09-09T04:33:16;6.77;;;1.73;;
14191;SDS011;7177;48.572;7.838;2022-09-09T04:35:46;4.63;;;1.40;;
14191;SDS011;7177;48.572;7.838;2022-09-09T04:38:12;6.37;;;1.67;;
14191;SDS011;7177;48.572;7.838;2022-09-09T04:40:38;5.20;;;1.80;;
14191;SDS011;7177;48.572;7.838;2022-09-09T04:43:07;6.60;;;1.60;;
14191;SDS011;7177;48.572;7.838;2022-09-09T04:45:33;3.17;;;1.47;;
14191;SDS011;7177;48.572;7.838;2022-09-09T04:47:59;4.90;;;1.80;;
14191;SDS011;7177;48.572;7.838;2022-09-09T04:50:25;6.60;;;2.00;;
14191;SDS011;7177;48.572;7.838;2022-09-09T04:52:51;3.53;;;1.93;;
14191;SDS011;7177;48.572;7.838;2022-09-09T04:55:16;4.40;;;1.90;;
14191;SDS011;7177;48.572;7.838;2022-09-09T04:57:42;5.83;;;2.00;;
14191;SDS011;7177;48.572;7.838;2022-09-09T05:00:08;3.67;;;2.30;;
14191;SDS011;7177;48.572;7.838;2022-09-09T05:02:37;3.10;;;1.90;;
14191;SDS011;7177;48.572;7.838;2022-09-09T05:05:04;3.20;;;2.00;;
14191;SDS011;7177;48.572;7.838;2022-09-09T05:07:30;3.90;;;2.30;;
14191;SDS011;7177;48.572;7.838;2022-09-09T05:09:56;8.73;;;2.30;;
14191;SDS011;7177;48.572;7.838;2022-09-09T05:12:21;3.77;;;1.97;;
14191;SDS011;7177;48.572;7.838;2022-09-09T05:14:49;4.97;;;2.20;;
14191;SDS011;7177;48.572;7.838;2022-09-09T05:17:15;7.13;;;2.20;;
14191;SDS011;7177;48.572;7.838;2022-09-09T05:19:41;8.80;;;2.17;;
14191;SDS011;7177;48.572;7.838;2022-09-09T05:22:06;6.03;;;2.20;;
14191;SDS011;7177;48.572;7.838;2022-09-09T05:24:32;4.83;;;2.33;;
14191;SDS011;7177;48.572;7.838;2022-09-09T05:26:58;7.77;;;2.77;;
14191;SDS011;7177;48.572;7.838;2022-09-09T05:29:24;5.20;;;2.50;;
14191;SDS011;7177;48.572;7.838;2022-09-09T05:31:51;6.53;;;2.57;;
14191;SDS011;7177;48.572;7.838;2022-09-09T05:34:17;6.27;;;2.47;;
14191;SDS011;7177;48.572;7.838;2022-09-09T05:36:42;3.53;;;2.00;;
14191;SDS011;7177;48.572;7.838;2022-09-09T05:39:08;5.73;;;2.43;;
14191;SDS011;7177;48.572;7.838;2022-09-09T05:41:33;3.80;;;2.40;;
14191;SDS011;7177;48.572;7.838;2022-09-09T05:44:00;2.87;;;2.27;;
14191;SDS011;7177;48.572;7.838;2022-09-09T05:46:26;6.77;;;2.00;;
14191;SDS011;7177;48.572;7.838;2022-09-09T05:48:52;4.50;;;2.00;;
14191;SDS011;7177;48.572;7.838;2022-09-09T05:51:19;8.60;;;2.40;;
14191;SDS011;7177;48.572;7.838;2022-09-09T05:53:46;5.70;;;2.37;;
14191;SDS011;7177;48.572;7.838;2022-09-09T05:56:13;7.40;;;2.40;;
14191;SDS011;7177;48.572;7.838;2022-09-09T05:58:44;4.50;;;2.50;;
14191;SDS011;7177;48.572;7.838;2022-09-09T06:01:31;4.37;;;2.20;;
14191;SDS011;7177;48.572;7.838;2022-09-09T06:03:58;3.47;;;2.40;;
14191;SDS011;7177;48.572;7.838;2022-09-09T06:06:24;5.23;;;2.10;;
14191;SDS011;7177;48.572;7.838;2022-09-09T06:08:52;6.10;;;2.57;;
14191;SDS011;7177;48.572;7.838;2022-09-09T06:11:23;6.50;;;2.60;;
14191;SDS011;7177;48.572;7.838;2022-09-09T06:16:19;8.10;;;2.43;;
14191;SDS011;7177;48.572;7.838;2022-09-09T06:18:48;7.37;;;2.10;;
14191;SDS011;7177;48.572;7.838;2022-09-09T06:23:44;4.23;;;2.27;;
14191;SDS011;7177;48.572;7.838;2022-09-09T06:26:10;5.53;;;2.50;;
14191;SDS011;7177;48.572;7.838;2022-09-09T06:28:37;6.67;;;2.27;;
14191;SDS011;7177;48.572;7.838;2022-09-09T06:31:05;7.83;;;2.67;;
14191;SDS011;7177;48.572;7.838;2022-09-09T06:33:36;8.53;;;2.70;;
14191;SDS011;7177;48.572;7.838;2022-09-09T06:36:04;9.77;;;2.40;;
14191;SDS011;7177;48.572;7.838;2022-09-09T06:38:30;5.60;;;2.50;;
14191;SDS011;7177;48.572;7.838;2022-09-09T06:40:57;4.90;;;2.50;;
14191;SDS011;7177;48.572;7.838;2022-09-09T06:43:27;5.90;;;2.33;;
14191;SDS011;7177;48.572;7.838;2022-09-09T06:45:57;5.50;;;2.63;;
14191;SDS011;7177;48.572;7.838;2022-09-09T06:48:34;5.27;;;2.23;;
14191;SDS011;7177;48.572;7.838;2022-09-09T06:53:31;3.17;;;2.00;;
14191;SDS011;7177;48.572;7.838;2022-09-09T06:58:45;5.93;;;2.20;;
14191;SDS011;7177;48.572;7.838;2022-09-09T07:01:12;3.87;;;1.80;;
14191;SDS011;7177;48.572;7.838;2022-09-09T07:03:39;2.07;;;1.80;;
14191;SDS011;7177;48.572;7.838;2022-09-09T07:06:06;5.97;;;2.13;;
14191;SDS011;7177;48.572;7.838;2022-09-09T07:08:32;3.10;;;1.70;;
14191;SDS011;7177;48.572;7.838;2022-09-09T07:11:05;5.37;;;2.07;;
14191;SDS011;7177;48.572;7.838;2022-09-09T07:13:31;5.43;;;1.97;;
14191;SDS011;7177;48.572;7.838;2022-09-09T07:16:30;2.43;;;1.80;;
14191;SDS011;7177;48.572;7.838;2022-09-09T07:18:49;5.37;;;2.00;;
14191;SDS011;7177;48.572;7.838;2022-09-09T07:21:16;6.27;;;1.80;;
14191;SDS011;7177;48.572;7.838;2022-09-09T07:23:42;5.93;;;1.83;;
14191;SDS011;7177;48.572;7.838;2022-09-09T07:26:09;4.57;;;1.80;;
14191;SDS011;7177;48.572;7.838;2022-09-09T07:28:36;5.37;;;2.00;;
14191;SDS011;7177;48.572;7.838;2022-09-09T07:31:02;3.40;;;1.70;;
14191;SDS011;7177;48.572;7.838;2022-09-09T07:33:29;4.87;;;1.80;;
14191;SDS011;7177;48.572;7.838;2022-09-09T07:38:52;4.90;;;1.60;;
14191;SDS011;7177;48.572;7.838;2022-09-09T07:41:22;3.13;;;1.60;;
14191;SDS011;7177;48.572;7.838;2022-09-09T07:43:56;3.33;;;1.50;;
14191;SDS011;7177;48.572;7.838;2022-09-09T07:46:24;4.37;;;1.70;;
14191;SDS011;7177;48.572;7.838;2022-09-09T07:48:52;4.23;;;1.70;;
14191;SDS011;7177;48.572;7.838;2022-09-09T07:51:20;4.27;;;1.50;;
14191;SDS011;7177;48.572;7.838;2022-09-09T07:53:51;5.43;;;1.80;;
14191;SDS011;7177;48.572;7.838;2022-09-09T07:56:18;2.20;;;1.30;;
14191;SDS011;7177;48.572;7.838;2022-09-09T07:58:46;4.20;;;1.30;;
14191;SDS011;7177;48.572;7.838;2022-09-09T08:01:19;5.23;;;1.40;;
14191;SDS011;7177;48.572;7.838;2022-09-09T08:03:51;3.63;;;1.67;;
14191;SDS011;7177;48.572;7.838;2022-09-09T08:06:18;3.53;;;1.50;;
14191;SDS011;7177;48.572;7.838;2022-09-09T08:08:44;7.00;;;1.50;;
14191;SDS011;7177;48.572;7.838;2022-09-09T08:11:13;3.70;;;1.50;;
14191;SDS011;7177;48.572;7.838;2022-09-09T08:13:39;5.97;;;1.90;;
14191;SDS011;7177;48.572;7.838;2022-09-09T08:16:06;8.07;;;1.60;;
14191;SDS011;7177;48.572;7.838;2022-09-09T08:18:34;3.43;;;1.90;;
14191;SDS011;7177;48.572;7.838;2022-09-09T08:21:07;4.63;;;1.83;;
14191;SDS011;7177;48.572;7.838;2022-09-09T08:23:38;3.10;;;1.30;;
14191;SDS011;7177;48.572;7.838;2022-09-09T08:26:10;2.73;;;1.40;;
14191;SDS011;7177;48.572;7.838;2022-09-09T08:28:38;5.73;;;2.07;;
14191;SDS011;7177;48.572;7.838;2022-09-09T08:31:15;4.10;;;1.70;;
14191;SDS011;7177;48.572;7.838;2022-09-09T08:33:43;5.03;;;2.00;;
14191;SDS011;7177;48.572;7.838;2022-09-09T08:36:11;2.73;;;1.50;;
14191;SDS011;7177;48.572;7.838;2022-09-09T08:38:40;8.10;;;1.60;;
14191;SDS011;7177;48.572;7.838;2022-09-09T08:44:12;7.17;;;1.53;;
14191;SDS011;7177;48.572;7.838;2022-09-09T08:47:14;4.37;;;1.50;;
14191;SDS011;7177;48.572;7.838;2022-09-09T08:52:41;6.40;;;1.70;;
14191;SDS011;7177;48.572;7.838;2022-09-09T08:55:28;4.67;;;1.70;;
14191;SDS011;7177;48.572;7.838;2022-09-09T09:00:44;5.63;;;1.57;;
14191;SDS011;7177;48.572;7.838;2022-09-09T09:11:34;6.30;;;1.50;;
14191;SDS011;7177;48.572;7.838;2022-09-09T09:14:08;11.93;;;2.07;;
14191;SDS011;7177;48.572;7.838;2022-09-09T09:16:43;5.23;;;1.73;;
14191;SDS011;7177;48.572;7.838;2022-09-09T09:19:24;9.90;;;2.70;;
14191;SDS011;7177;48.572;7.838;2022-09-09T09:25:15;3.80;;;1.97;;
14191;SDS011;7177;48.572;7.838;2022-09-09T09:27:52;7.23;;;2.10;;
14191;SDS011;7177;48.572;7.838;2022-09-09T09:30:26;8.17;;;1.70;;
14191;SDS011;7177;48.572;7.838;2022-09-09T09:33:08;3.13;;;1.70;;
14191;SDS011;7177;48.572;7.838;2022-09-09T09:35:43;5.07;;;1.90;;
14191;SDS011;7177;48.572;7.838;2022-09-09T09:38:18;6.37;;;1.90;;
14191;SDS011;7177;48.572;7.838;2022-09-09T09:40:56;5.37;;;2.00;;
14191;SDS011;7177;48.572;7.838;2022-09-09T09:43:27;7.43;;;1.57;;
14191;SDS011;7177;48.572;7.838;2022-09-09T09:45:57;5.57;;;1.97;;
14191;SDS011;7177;48.572;7.838;2022-09-09T09:48:23;3.70;;;1.80;;
14191;SDS011;7177;48.572;7.838;2022-09-09T09:53:25;7.53;;;1.80;;
14191;SDS011;7177;48.572;7.838;2022-09-09T09:58:33;7.60;;;1.50;;
14191;SDS011;7177;48.572;7.838;2022-09-09T10:01:27;8.40;;;1.43;;
14191;SDS011;7177;48.572;7.838;2022-09-09T10:04:00;3.40;;;1.37;;
14191;SDS011;7177;48.572;7.838;2022-09-09T10:06:31;6.97;;;1.93;;
14191;SDS011;7177;48.572;7.838;2022-09-09T10:09:01;5.43;;;1.60;;
14191;SDS011;7177;48.572;7.838;2022-09-09T10:11:44;2.67;;;1.50;;
14191;SDS011;7177;48.572;7.838;2022-09-09T10:15:38;6.13;;;1.50;;
14191;SDS011;7177;48.572;7.838;2022-09-09T10:17:49;2.30;;;1.40;;
14191;SDS011;7177;48.572;7.838;2022-09-09T10:20:41;5.33;;;1.50;;
14191;SDS011;7177;48.572;7.838;2022-09-09T10:28:53;3.27;;;1.17;;
14191;SDS011;7177;48.572;7.838;2022-09-09T10:31:32;2.57;;;0.90;;
14191;SDS011;7177;48.572;7.838;2022-09-09T10:34:32;4.00;;;1.43;;
14191;SDS011;7177;48.572;7.838;2022-09-09T10:36:58;5.17;;;1.17;;
14191;SDS011;7177;48.572;7.838;2022-09-09T10:39:33;2.40;;;1.10;;
14191;SDS011;7177;48.572;7.838;2022-09-09T10:42:09;4.23;;;1.00;;
14191;SDS011;7177;48.572;7.838;2022-09-09T10:50:25;2.33;;;0.93;;
14191;SDS011;7177;48.572;7.838;2022-09-09T10:55:43;3.00;;;1.00;;
14191;SDS011;7177;48.572;7.838;2022-09-09T10:58:18;2.33;;;1.10;;
14191;SDS011;7177;48.572;7.838;2022-09-09T11:00:58;4.43;;;1.27;;
14191;SDS011;7177;48.572;7.838;2022-09-09T11:03:28;2.90;;;1.33;;
14191;SDS011;7177;48.572;7.838;2022-09-09T11:06:09;3.30;;;1.10;;
14191;SDS011;7177;48.572;7.838;2022-09-09T11:08:39;3.03;;;1.10;;
14191;SDS011;7177;48.572;7.838;2022-09-09T11:11:16;3.20;;;1.00;;
14191;SDS011;7177;48.572;7.838;2022-09-09T11:19:15;4.53;;;1.13;;
14191;SDS011;7177;48.572;7.838;2022-09-09T11:21:59;2.57;;;1.10;;
14191;SDS011;7177;48.572;7.838;2022-09-09T11:24:33;5.60;;;1.17;;
14191;SDS011;7177;48.572;7.838;2022-09-09T11:38:47;5.70;;;1.23;;
14191;SDS011;7177;48.572;7.838;2022-09-09T11:41:16;3.10;;;1.23;;
14191;SDS011;7177;48.572;7.838;2022-09-09T11:43:46;5.40;;;1.30;;
14191;SDS011;7177;48.572;7.838;2022-09-09T11:46:17;6.30;;;1.20;;
14191;SDS011;7177;48.572;7.838;2022-09-09T11:48:46;3.37;;;1.20;;
14191;SDS011;7177;48.572;7.838;2022-09-09T11:51:30;7.73;;;1.10;;
14191;SDS011;7177;48.572;7.838;2022-09-09T11:53:58;4.70;;;1.00;;
14191;SDS011;7177;48.572;7.838;2022-09-09T11:56:33;4.83;;;1.27;;
14191;SDS011;7177;48.572;7.838;2022-09-09T11:59:21;3.87;;;1.20;;
14191;SDS011;7177;48.572;7.838;2022-09-09T12:15:32;2.53;;;1.00;;
14191;SDS011;7177;48.572;7.838;2022-09-09T12:17:58;3.87;;;1.30;;
14191;SDS011;7177;48.572;7.838;2022-09-09T12:20:38;3.27;;;1.37;;
14191;SDS011;7177;48.572;7.838;2022-09-09T12:23:32;4.97;;;1.30;;
14191;SDS011;7177;48.572;7.838;2022-09-09T12:31:31;2.50;;;1.20;;
14191;SDS011;7177;48.572;7.838;2022-09-09T12:34:36;2.70;;;1.17;;
14191;SDS011;7177;48.572;7.838;2022-09-09T12:37:24;3.33;;;1.53;;
14191;SDS011;7177;48.572;7.838;2022-09-09T12:40:02;5.00;;;1.43;;
14191;SDS011;7177;48.572;7.838;2022-09-09T12:42:43;5.33;;;1.33;;
14191;SDS011;7177;48.572;7.838;2022-09-09T12:45:16;3.27;;;1.20;;
14191;SDS011;7177;48.572;7.838;2022-09-09T12:50:17;2.40;;;1.20;;
14191;SDS011;7177;48.572;7.838;2022-09-09T12:52:47;5.53;;;1.40;;
14191;SDS011;7177;48.572;7.838;2022-09-09T12:55:19;1.53;;;1.10;;
14191;SDS011;7177;48.572;7.838;2022-09-09T12:57:46;3.03;;;1.13;;
14191;SDS011;7177;48.572;7.838;2022-09-09T13:00:21;6.97;;;1.30;;
14191;SDS011;7177;48.572;7.838;2022-09-09T13:02:49;4.13;;;1.67;;
14191;SDS011;7177;48.572;7.838;2022-09-09T13:05:27;5.53;;;1.30;;
14191;SDS011;7177;48.572;7.838;2022-09-09T13:08:04;2.50;;;1.07;;
14191;SDS011;7177;48.572;7.838;2022-09-09T13:10:32;2.73;;;1.10;;
14191;SDS011;7177;48.572;7.838;2022-09-09T13:13:04;6.30;;;1.30;;
14191;SDS011;7177;48.572;7.838;2022-09-09T13:15:38;3.50;;;1.07;;
14191;SDS011;7177;48.572;7.838;2022-09-09T13:18:05;6.30;;;1.00;;
14191;SDS011;7177;48.572;7.838;2022-09-09T13:20:36;2.43;;;1.03;;
14191;SDS011;7177;48.572;7.838;2022-09-09T13:23:02;2.97;;;1.10;;
14191;SDS011;7177;48.572;7.838;2022-09-09T13:25:28;1.70;;;0.73;;
14191;SDS011;7177;48.572;7.838;2022-09-09T13:38:24;3.97;;;0.93;;
14191;SDS011;7177;48.572;7.838;2022-09-09T13:40:56;3.33;;;1.00;;
14191;SDS011;7177;48.572;7.838;2022-09-09T13:43:24;3.27;;;0.83;;
14191;SDS011;7177;48.572;7.838;2022-09-09T13:45:58;2.27;;;1.00;;
14191;SDS011;7177;48.572;7.838;2022-09-09T13:48:29;3.07;;;1.00;;
14191;SDS011;7177;48.572;7.838;2022-09-09T13:51:00;5.90;;;3.20;;
14191;SDS011;7177;48.572;7.838;2022-09-09T13:53:29;3.97;;;1.37;;
14191;SDS011;7177;48.572;7.838;2022-09-09T13:55:55;6.27;;;0.93;;
14191;SDS011;7177;48.572;7.838;2022-09-09T13:58:22;3.53;;;1.10;;
14191;SDS011;7177;48.572;7.838;2022-09-09T14:00:49;3.33;;;0.87;;
14191;SDS011;7177;48.572;7.838;2022-09-09T14:03:15;2.77;;;0.97;;
14191;SDS011;7177;48.572;7.838;2022-09-09T14:05:41;1.07;;;0.67;;
14191;SDS011;7177;48.572;7.838;2022-09-09T14:08:09;4.77;;;1.00;;
14191;SDS011;7177;48.572;7.838;2022-09-09T14:10:43;3.63;;;1.00;;
14191;SDS011;7177;48.572;7.838;2022-09-09T14:13:09;4.67;;;0.90;;
14191;SDS011;7177;48.572;7.838;2022-09-09T14:15:34;4.03;;;1.10;;
14191;SDS011;7177;48.572;7.838;2022-09-09T14:18:00;3.03;;;0.83;;
14191;SDS011;7177;48.572;7.838;2022-09-09T14:20:27;3.73;;;1.27;;
14191;SDS011;7177;48.572;7.838;2022-09-09T14:22:52;2.70;;;0.80;;
14191;SDS011;7177;48.572;7.838;2022-09-09T14:25:18;3.80;;;1.10;;
14191;SDS011;7177;48.572;7.838;2022-09-09T14:27:44;6.97;;;1.23;;
14191;SDS011;7177;48.572;7.838;2022-09-09T14:30:10;3.97;;;1.03;;
14191;SDS011;7177;48.572;7.838;2022-09-09T14:32:37;3.10;;;1.13;;
14191;SDS011;7177;48.572;7.838;2022-09-09T14:35:02;5.50;;;1.23;;
14191;SDS011;7177;48.572;7.838;2022-09-09T14:37:28;6.67;;;1.30;;
14191;SDS011;7177;48.572;7.838;2022-09-09T14:39:56;4.53;;;1.10;;
14191;SDS011;7177;48.572;7.838;2022-09-09T14:42:21;5.07;;;1.30;;
14191;SDS011;7177;48.572;7.838;2022-09-09T14:44:48;3.20;;;1.20;;
14191;SDS011;7177;48.572;7.838;2022-09-09T14:47:13;2.53;;;1.50;;
14191;SDS011;7177;48.572;7.838;2022-09-09T14:49:39;5.47;;;1.40;;
14191;SDS011;7177;48.572;7.838;2022-09-09T14:52:04;2.43;;;1.30;;
14191;SDS011;7177;48.572;7.838;2022-09-09T14:54:31;8.07;;;1.17;;
14191;SDS011;7177;48.572;7.838;2022-09-09T14:56:57;8.73;;;2.00;;
14191;SDS011;7177;48.572;7.838;2022-09-09T14:59:23;2.03;;;1.00;;
14191;SDS011;7177;48.572;7.838;2022-09-09T15:01:48;1.80;;;1.20;;
14191;SDS011;7177;48.572;7.838;2022-09-09T15:04:14;3.47;;;1.37;;
14191;SDS011;7177;48.572;7.838;2022-09-09T15:06:41;3.13;;;1.40;;
14191;SDS011;7177;48.572;7.838;2022-09-09T15:09:09;3.83;;;1.17;;
14191;SDS011;7177;48.572;7.838;2022-09-09T15:11:35;5.20;;;1.20;;
14191;SDS011;7177;48.572;7.838;2022-09-09T15:14:03;1.33;;;1.00;;
14191;SDS011;7177;48.572;7.838;2022-09-09T15:16:29;2.90;;;1.17;;
14191;SDS011;7177;48.572;7.838;2022-09-09T15:18:57;5.23;;;1.40;;
14191;SDS011;7177;48.572;7.838;2022-09-09T15:21:25;2.87;;;1.27;;
14191;SDS011;7177;48.572;7.838;2022-09-09T15:23:52;4.10;;;1.20;;
14191;SDS011;7177;48.572;7.838;2022-09-09T15:26:18;4.60;;;1.20;;
14191;SDS011;7177;48.572;7.838;2022-09-09T15:28:44;2.63;;;1.30;;
14191;SDS011;7177;48.572;7.838;2022-09-09T15:31:19;4.17;;;1.43;;
14191;SDS011;7177;48.572;7.838;2022-09-09T15:33:50;3.57;;;1.20;;
14191;SDS011;7177;48.572;7.838;2022-09-09T15:38:44;2.43;;;0.93;;
14191;SDS011;7177;48.572;7.838;2022-09-09T15:41:10;4.20;;;1.70;;
14191;SDS011;7177;48.572;7.838;2022-09-09T15:43:37;8.90;;;1.77;;
14191;SDS011;7177;48.572;7.838;2022-09-09T15:46:09;4.87;;;1.40;;
14191;SDS011;7177;48.572;7.838;2022-09-09T15:48:42;5.23;;;1.20;;
14191;SDS011;7177;48.572;7.838;2022-09-09T15:51:11;2.83;;;1.13;;
14191;SDS011;7177;48.572;7.838;2022-09-09T15:53:37;3.00;;;1.33;;
14191;SDS011;7177;48.572;7.838;2022-09-09T15:56:04;9.20;;;1.40;;
14191;SDS011;7177;48.572;7.838;2022-09-09T15:58:31;1.83;;;1.00;;
14191;SDS011;7177;48.572;7.838;2022-09-09T16:01:04;3.33;;;1.33;;
14191;SDS011;7177;48.572;7.838;2022-09-09T16:03:38;2.80;;;1.47;;
14191;SDS011;7177;48.572;7.838;2022-09-09T16:06:11;3.33;;;1.20;;
14191;SDS011;7177;48.572;7.838;2022-09-09T16:08:39;3.50;;;1.43;;
14191;SDS011;7177;48.572;7.838;2022-09-09T16:11:11;2.60;;;1.10;;
14191;SDS011;7177;48.572;7.838;2022-09-09T16:13:42;1.87;;;1.33;;
14191;SDS011;7177;48.572;7.838;2022-09-09T16:16:09;2.90;;;1.43;;
14191;SDS011;7177;48.572;7.838;2022-09-09T16:18:37;2.17;;;0.97;;
14191;SDS011;7177;48.572;7.838;2022-09-09T16:21:05;3.30;;;1.20;;
14191;SDS011;7177;48.572;7.838;2022-09-09T16:23:33;5.90;;;1.70;;
14191;SDS011;7177;48.572;7.838;2022-09-09T16:25:59;4.60;;;1.10;;
14191;SDS011;7177;48.572;7.838;2022-09-09T16:28:25;3.43;;;1.33;;
14191;SDS011;7177;48.572;7.838;2022-09-09T16:30:51;3.47;;;0.90;;
14191;SDS011;7177;48.572;7.838;2022-09-09T16:33:17;1.43;;;1.00;;
14191;SDS011;7177;48.572;7.838;2022-09-09T16:35:43;2.37;;;1.20;;
14191;SDS011;7177;48.572;7.838;2022-09-09T16:38:09;8.07;;;1.30;;
14191;SDS011;7177;48.572;7.838;2022-09-09T16:40:35;5.07;;;1.27;;
14191;SDS011;7177;48.572;7.838;2022-09-09T16:43:03;2.97;;;1.10;;
14191;SDS011;7177;48.572;7.838;2022-09-09T16:45:30;2.23;;;1.10;;
14191;SDS011;7177;48.572;7.838;2022-09-09T16:47:57;2.83;;;1.20;;
14191;SDS011;7177;48.572;7.838;2022-09-09T16:50:23;2.57;;;0.90;;
14191;SDS011;7177;48.572;7.838;2022-09-09T16:52:48;4.67;;;1.30;;
14191;SDS011;7177;48.572;7.838;2022-09-09T16:55:15;2.10;;;1.13;;
14191;SDS011;7177;48.572;7.838;2022-09-09T16:57:41;2.63;;;1.13;;
14191;SDS011;7177;48.572;7.838;2022-09-09T17:00:07;1.33;;;0.93;;
14191;SDS011;7177;48.572;7.838;2022-09-09T17:02:33;2.20;;;1.30;;
14191;SDS011;7177;48.572;7.838;2022-09-09T17:04:59;2.43;;;1.20;;
14191;SDS011;7177;48.572;7.838;2022-09-09T17:07:24;2.20;;;1.13;;
14191;SDS011;7177;48.572;7.838;2022-09-09T17:09:50;5.50;;;1.10;;
14191;SDS011;7177;48.572;7.838;2022-09-09T17:12:16;3.47;;;1.63;;
14191;SDS011;7177;48.572;7.838;2022-09-09T17:14:42;2.67;;;1.30;;
14191;SDS011;7177;48.572;7.838;2022-09-09T17:17:07;3.40;;;1.40;;
14191;SDS011;7177;48.572;7.838;2022-09-09T17:19:33;5.87;;;1.40;;
14191;SDS011;7177;48.572;7.838;2022-09-09T17:21:58;5.37;;;1.07;;
14191;SDS011;7177;48.572;7.838;2022-09-09T17:24:25;2.73;;;1.20;;
14191;SDS011;7177;48.572;7.838;2022-09-09T17:26:51;3.93;;;1.27;;
14191;SDS011;7177;48.572;7.838;2022-09-09T17:29:18;2.77;;;1.20;;
14191;SDS011;7177;48.572;7.838;2022-09-09T17:31:43;3.87;;;1.10;;
14191;SDS011;7177;48.572;7.838;2022-09-09T17:34:09;4.00;;;1.30;;
14191;SDS011;7177;48.572;7.838;2022-09-09T17:36:35;3.93;;;1.30;;